Webcam

2018/08/15 21:50 EBBR 152150Z 18006KT 9999 FEW035 16/13 Q1019 NOSIG

Webcam

--- Refresh now ---